sensor_id;sensor_type;location;lat;lon;timestamp;P1;durP1;ratioP1;P2;durP2;ratioP2
9117;SDS011;4594;50.994;7.126;2023-05-29T00:00:06;6.77;;;3.20;;
9117;SDS011;4594;50.994;7.126;2023-05-29T00:02:36;3.90;;;3.20;;
9117;SDS011;4594;50.994;7.126;2023-05-29T00:05:01;3.00;;;2.80;;
9117;SDS011;4594;50.994;7.126;2023-05-29T00:07:30;4.60;;;3.27;;
9117;SDS011;4594;50.994;7.126;2023-05-29T00:09:57;4.47;;;3.27;;
9117;SDS011;4594;50.994;7.126;2023-05-29T00:12:23;3.83;;;3.50;;
9117;SDS011;4594;50.994;7.126;2023-05-29T00:14:50;6.73;;;3.17;;
9117;SDS011;4594;50.994;7.126;2023-05-29T00:17:16;4.87;;;3.57;;
9117;SDS011;4594;50.994;7.126;2023-05-29T00:19:42;6.50;;;3.37;;
9117;SDS011;4594;50.994;7.126;2023-05-29T00:22:08;7.17;;;3.40;;
9117;SDS011;4594;50.994;7.126;2023-05-29T00:24:35;5.73;;;3.03;;
9117;SDS011;4594;50.994;7.126;2023-05-29T00:27:00;10.73;;;3.70;;
9117;SDS011;4594;50.994;7.126;2023-05-29T00:29:26;5.60;;;3.23;;
9117;SDS011;4594;50.994;7.126;2023-05-29T00:31:53;4.63;;;2.87;;
9117;SDS011;4594;50.994;7.126;2023-05-29T00:34:22;12.33;;;3.30;;
9117;SDS011;4594;50.994;7.126;2023-05-29T00:36:48;3.93;;;3.20;;
9117;SDS011;4594;50.994;7.126;2023-05-29T00:39:14;3.00;;;2.77;;
9117;SDS011;4594;50.994;7.126;2023-05-29T00:41:40;3.93;;;3.43;;
9117;SDS011;4594;50.994;7.126;2023-05-29T00:44:06;5.20;;;3.00;;
9117;SDS011;4594;50.994;7.126;2023-05-29T00:46:32;3.37;;;3.10;;
9117;SDS011;4594;50.994;7.126;2023-05-29T00:48:59;5.90;;;3.30;;
9117;SDS011;4594;50.994;7.126;2023-05-29T00:51:26;5.33;;;3.20;;
9117;SDS011;4594;50.994;7.126;2023-05-29T00:53:54;5.43;;;3.40;;
9117;SDS011;4594;50.994;7.126;2023-05-29T00:56:22;4.60;;;3.43;;
9117;SDS011;4594;50.994;7.126;2023-05-29T00:58:49;4.20;;;3.37;;
9117;SDS011;4594;50.994;7.126;2023-05-29T01:01:19;4.10;;;2.93;;
9117;SDS011;4594;50.994;7.126;2023-05-29T01:03:46;3.17;;;2.97;;
9117;SDS011;4594;50.994;7.126;2023-05-29T01:06:13;3.20;;;2.90;;
9117;SDS011;4594;50.994;7.126;2023-05-29T01:08:39;3.87;;;3.17;;
9117;SDS011;4594;50.994;7.126;2023-05-29T01:14:05;6.33;;;3.20;;
9117;SDS011;4594;50.994;7.126;2023-05-29T01:16:42;4.67;;;3.23;;
9117;SDS011;4594;50.994;7.126;2023-05-29T01:19:29;5.17;;;3.63;;
9117;SDS011;4594;50.994;7.126;2023-05-29T01:22:24;5.83;;;3.10;;
9117;SDS011;4594;50.994;7.126;2023-05-29T01:25:06;3.70;;;3.10;;
9117;SDS011;4594;50.994;7.126;2023-05-29T01:28:20;3.13;;;2.90;;
9117;SDS011;4594;50.994;7.126;2023-05-29T01:30:51;3.30;;;2.87;;
9117;SDS011;4594;50.994;7.126;2023-05-29T01:33:21;3.47;;;3.07;;
9117;SDS011;4594;50.994;7.126;2023-05-29T01:35:47;3.57;;;3.00;;
9117;SDS011;4594;50.994;7.126;2023-05-29T01:38:13;5.57;;;3.10;;
9117;SDS011;4594;50.994;7.126;2023-05-29T01:40:39;3.17;;;2.90;;
9117;SDS011;4594;50.994;7.126;2023-05-29T01:43:05;3.20;;;3.03;;
9117;SDS011;4594;50.994;7.126;2023-05-29T01:45:32;3.47;;;3.27;;
9117;SDS011;4594;50.994;7.126;2023-05-29T01:47:59;3.30;;;2.97;;
9117;SDS011;4594;50.994;7.126;2023-05-29T01:50:25;3.97;;;3.47;;
9117;SDS011;4594;50.994;7.126;2023-05-29T01:52:53;3.17;;;2.90;;
9117;SDS011;4594;50.994;7.126;2023-05-29T01:55:19;5.90;;;3.20;;
9117;SDS011;4594;50.994;7.126;2023-05-29T01:57:45;3.20;;;3.00;;
9117;SDS011;4594;50.994;7.126;2023-05-29T02:00:12;3.73;;;3.30;;
9117;SDS011;4594;50.994;7.126;2023-05-29T02:02:41;3.40;;;3.10;;
9117;SDS011;4594;50.994;7.126;2023-05-29T02:05:07;2.90;;;2.80;;
9117;SDS011;4594;50.994;7.126;2023-05-29T02:07:35;3.20;;;3.00;;
9117;SDS011;4594;50.994;7.126;2023-05-29T02:10:02;3.27;;;2.97;;
9117;SDS011;4594;50.994;7.126;2023-05-29T02:12:29;3.30;;;3.00;;
9117;SDS011;4594;50.994;7.126;2023-05-29T02:14:55;4.80;;;3.13;;
9117;SDS011;4594;50.994;7.126;2023-05-29T02:17:21;3.60;;;3.30;;
9117;SDS011;4594;50.994;7.126;2023-05-29T02:19:47;4.00;;;3.50;;
9117;SDS011;4594;50.994;7.126;2023-05-29T02:22:13;5.40;;;3.30;;
9117;SDS011;4594;50.994;7.126;2023-05-29T02:24:39;3.30;;;3.00;;
9117;SDS011;4594;50.994;7.126;2023-05-29T02:27:04;3.27;;;2.97;;
9117;SDS011;4594;50.994;7.126;2023-05-29T02:29:30;3.60;;;3.20;;
9117;SDS011;4594;50.994;7.126;2023-05-29T02:31:56;5.10;;;3.27;;
9117;SDS011;4594;50.994;7.126;2023-05-29T02:34:21;5.77;;;3.73;;
9117;SDS011;4594;50.994;7.126;2023-05-29T02:36:48;4.07;;;3.27;;
9117;SDS011;4594;50.994;7.126;2023-05-29T02:39:14;3.83;;;3.33;;
9117;SDS011;4594;50.994;7.126;2023-05-29T02:41:40;3.80;;;3.50;;
9117;SDS011;4594;50.994;7.126;2023-05-29T02:44:05;3.53;;;3.23;;
9117;SDS011;4594;50.994;7.126;2023-05-29T02:46:31;6.07;;;3.40;;
9117;SDS011;4594;50.994;7.126;2023-05-29T02:48:57;3.73;;;3.43;;
9117;SDS011;4594;50.994;7.126;2023-05-29T02:51:22;7.20;;;3.63;;
9117;SDS011;4594;50.994;7.126;2023-05-29T02:53:48;3.57;;;3.23;;
9117;SDS011;4594;50.994;7.126;2023-05-29T02:56:14;7.50;;;3.57;;
9117;SDS011;4594;50.994;7.126;2023-05-29T02:58:40;9.47;;;3.97;;
9117;SDS011;4594;50.994;7.126;2023-05-29T03:01:07;5.37;;;3.37;;
9117;SDS011;4594;50.994;7.126;2023-05-29T03:03:33;6.57;;;3.50;;
9117;SDS011;4594;50.994;7.126;2023-05-29T03:05:59;7.27;;;3.70;;
9117;SDS011;4594;50.994;7.126;2023-05-29T03:08:25;8.13;;;3.67;;
9117;SDS011;4594;50.994;7.126;2023-05-29T03:10:53;6.17;;;3.37;;
9117;SDS011;4594;50.994;7.126;2023-05-29T03:13:20;7.60;;;3.37;;
9117;SDS011;4594;50.994;7.126;2023-05-29T03:15:45;3.27;;;3.00;;
9117;SDS011;4594;50.994;7.126;2023-05-29T03:18:12;10.00;;;4.07;;
9117;SDS011;4594;50.994;7.126;2023-05-29T03:20:38;6.50;;;3.87;;
9117;SDS011;4594;50.994;7.126;2023-05-29T03:23:03;7.10;;;3.97;;
9117;SDS011;4594;50.994;7.126;2023-05-29T03:25:29;4.77;;;3.60;;
9117;SDS011;4594;50.994;7.126;2023-05-29T03:27:55;7.33;;;3.90;;
9117;SDS011;4594;50.994;7.126;2023-05-29T03:30:20;5.53;;;3.63;;
9117;SDS011;4594;50.994;7.126;2023-05-29T03:32:46;4.63;;;4.07;;
9117;SDS011;4594;50.994;7.126;2023-05-29T03:35:12;4.77;;;3.40;;
9117;SDS011;4594;50.994;7.126;2023-05-29T03:37:37;5.43;;;4.03;;
9117;SDS011;4594;50.994;7.126;2023-05-29T03:40:03;9.17;;;4.07;;
9117;SDS011;4594;50.994;7.126;2023-05-29T03:42:29;4.57;;;3.53;;
9117;SDS011;4594;50.994;7.126;2023-05-29T03:44:56;6.17;;;3.73;;
9117;SDS011;4594;50.994;7.126;2023-05-29T03:47:22;4.00;;;3.60;;
9117;SDS011;4594;50.994;7.126;2023-05-29T03:49:48;11.93;;;4.20;;
9117;SDS011;4594;50.994;7.126;2023-05-29T03:52:13;4.33;;;3.93;;
9117;SDS011;4594;50.994;7.126;2023-05-29T03:54:39;7.47;;;3.80;;
9117;SDS011;4594;50.994;7.126;2023-05-29T03:57:05;6.53;;;4.20;;
9117;SDS011;4594;50.994;7.126;2023-05-29T03:59:31;13.23;;;4.53;;
9117;SDS011;4594;50.994;7.126;2023-05-29T04:01:57;6.90;;;3.80;;
9117;SDS011;4594;50.994;7.126;2023-05-29T04:04:23;6.90;;;4.20;;
9117;SDS011;4594;50.994;7.126;2023-05-29T04:06:49;6.77;;;4.40;;
9117;SDS011;4594;50.994;7.126;2023-05-29T04:09:15;9.80;;;4.03;;
9117;SDS011;4594;50.994;7.126;2023-05-29T04:11:40;15.87;;;5.13;;
9117;SDS011;4594;50.994;7.126;2023-05-29T04:14:09;9.27;;;4.57;;
9117;SDS011;4594;50.994;7.126;2023-05-29T04:16:35;8.43;;;4.10;;
9117;SDS011;4594;50.994;7.126;2023-05-29T04:19:00;5.33;;;3.90;;
9117;SDS011;4594;50.994;7.126;2023-05-29T04:21:26;6.87;;;4.10;;
9117;SDS011;4594;50.994;7.126;2023-05-29T04:23:52;6.80;;;4.00;;
9117;SDS011;4594;50.994;7.126;2023-05-29T04:26:19;6.00;;;3.50;;
9117;SDS011;4594;50.994;7.126;2023-05-29T04:28:50;6.63;;;3.63;;
9117;SDS011;4594;50.994;7.126;2023-05-29T04:31:21;6.63;;;3.80;;
9117;SDS011;4594;50.994;7.126;2023-05-29T04:33:54;5.43;;;3.90;;
9117;SDS011;4594;50.994;7.126;2023-05-29T04:36:23;5.60;;;4.20;;
9117;SDS011;4594;50.994;7.126;2023-05-29T04:38:51;9.57;;;4.50;;
9117;SDS011;4594;50.994;7.126;2023-05-29T04:41:18;9.53;;;4.73;;
9117;SDS011;4594;50.994;7.126;2023-05-29T04:43:44;4.53;;;3.77;;
9117;SDS011;4594;50.994;7.126;2023-05-29T04:46:10;9.37;;;4.60;;
9117;SDS011;4594;50.994;7.126;2023-05-29T04:48:40;6.50;;;3.90;;
9117;SDS011;4594;50.994;7.126;2023-05-29T04:51:08;6.37;;;3.97;;
9117;SDS011;4594;50.994;7.126;2023-05-29T04:53:37;8.90;;;4.20;;
9117;SDS011;4594;50.994;7.126;2023-05-29T04:56:06;6.63;;;3.90;;
9117;SDS011;4594;50.994;7.126;2023-05-29T04:58:32;6.07;;;3.60;;
9117;SDS011;4594;50.994;7.126;2023-05-29T05:00:57;6.93;;;3.83;;
9117;SDS011;4594;50.994;7.126;2023-05-29T05:03:24;6.27;;;4.07;;
9117;SDS011;4594;50.994;7.126;2023-05-29T05:05:50;14.53;;;3.87;;
9117;SDS011;4594;50.994;7.126;2023-05-29T05:08:16;7.37;;;4.50;;
9117;SDS011;4594;50.994;7.126;2023-05-29T05:10:42;6.47;;;3.90;;
9117;SDS011;4594;50.994;7.126;2023-05-29T05:13:08;8.33;;;4.03;;
9117;SDS011;4594;50.994;7.126;2023-05-29T05:15:36;16.77;;;4.63;;
9117;SDS011;4594;50.994;7.126;2023-05-29T05:18:01;7.93;;;4.07;;
9117;SDS011;4594;50.994;7.126;2023-05-29T05:20:27;9.30;;;3.60;;
9117;SDS011;4594;50.994;7.126;2023-05-29T05:22:53;7.77;;;4.10;;
9117;SDS011;4594;50.994;7.126;2023-05-29T05:25:19;10.23;;;3.60;;
9117;SDS011;4594;50.994;7.126;2023-05-29T05:27:44;6.17;;;3.63;;
9117;SDS011;4594;50.994;7.126;2023-05-29T05:30:10;9.37;;;3.70;;
9117;SDS011;4594;50.994;7.126;2023-05-29T05:32:38;4.57;;;3.47;;
9117;SDS011;4594;50.994;7.126;2023-05-29T05:35:03;9.37;;;3.87;;
9117;SDS011;4594;50.994;7.126;2023-05-29T05:37:29;5.90;;;3.67;;
9117;SDS011;4594;50.994;7.126;2023-05-29T05:39:55;6.13;;;3.97;;
9117;SDS011;4594;50.994;7.126;2023-05-29T05:42:23;6.73;;;3.67;;
9117;SDS011;4594;50.994;7.126;2023-05-29T05:44:49;6.77;;;3.67;;
9117;SDS011;4594;50.994;7.126;2023-05-29T05:47:14;5.90;;;3.23;;
9117;SDS011;4594;50.994;7.126;2023-05-29T05:49:40;12.67;;;3.73;;
9117;SDS011;4594;50.994;7.126;2023-05-29T05:52:06;6.47;;;2.83;;
9117;SDS011;4594;50.994;7.126;2023-05-29T05:54:31;10.00;;;3.73;;
9117;SDS011;4594;50.994;7.126;2023-05-29T05:56:57;9.53;;;3.53;;
9117;SDS011;4594;50.994;7.126;2023-05-29T05:59:22;6.67;;;3.37;;
9117;SDS011;4594;50.994;7.126;2023-05-29T06:01:48;8.80;;;3.27;;
9117;SDS011;4594;50.994;7.126;2023-05-29T06:04:14;12.10;;;3.60;;
9117;SDS011;4594;50.994;7.126;2023-05-29T06:06:39;6.43;;;3.20;;
9117;SDS011;4594;50.994;7.126;2023-05-29T06:09:06;7.40;;;3.40;;
9117;SDS011;4594;50.994;7.126;2023-05-29T06:11:31;7.13;;;3.50;;
9117;SDS011;4594;50.994;7.126;2023-05-29T06:13:57;7.00;;;3.00;;
9117;SDS011;4594;50.994;7.126;2023-05-29T06:16:23;6.73;;;2.77;;
9117;SDS011;4594;50.994;7.126;2023-05-29T06:18:49;5.43;;;3.23;;
9117;SDS011;4594;50.994;7.126;2023-05-29T06:21:14;6.80;;;2.80;;
9117;SDS011;4594;50.994;7.126;2023-05-29T06:23:41;4.80;;;2.70;;
9117;SDS011;4594;50.994;7.126;2023-05-29T06:26:06;7.03;;;2.70;;
9117;SDS011;4594;50.994;7.126;2023-05-29T06:28:32;3.93;;;2.77;;
9117;SDS011;4594;50.994;7.126;2023-05-29T06:30:58;7.03;;;2.80;;
9117;SDS011;4594;50.994;7.126;2023-05-29T06:33:24;3.03;;;2.40;;
9117;SDS011;4594;50.994;7.126;2023-05-29T06:35:49;5.27;;;2.73;;
9117;SDS011;4594;50.994;7.126;2023-05-29T06:38:15;5.63;;;2.60;;
9117;SDS011;4594;50.994;7.126;2023-05-29T06:40:41;6.00;;;2.73;;
9117;SDS011;4594;50.994;7.126;2023-05-29T06:43:06;8.67;;;2.77;;
9117;SDS011;4594;50.994;7.126;2023-05-29T06:45:34;3.80;;;2.43;;
9117;SDS011;4594;50.994;7.126;2023-05-29T06:48:00;5.50;;;2.53;;
9117;SDS011;4594;50.994;7.126;2023-05-29T06:50:26;5.77;;;3.37;;
9117;SDS011;4594;50.994;7.126;2023-05-29T06:52:51;4.03;;;2.47;;
9117;SDS011;4594;50.994;7.126;2023-05-29T06:55:17;7.80;;;2.40;;
9117;SDS011;4594;50.994;7.126;2023-05-29T06:57:43;3.93;;;2.07;;
9117;SDS011;4594;50.994;7.126;2023-05-29T07:00:09;4.20;;;2.00;;
9117;SDS011;4594;50.994;7.126;2023-05-29T07:02:36;4.63;;;2.30;;
9117;SDS011;4594;50.994;7.126;2023-05-29T07:05:02;6.73;;;2.63;;
9117;SDS011;4594;50.994;7.126;2023-05-29T07:07:28;5.90;;;3.07;;
9117;SDS011;4594;50.994;7.126;2023-05-29T07:09:54;7.27;;;2.53;;
9117;SDS011;4594;50.994;7.126;2023-05-29T07:12:21;4.03;;;2.30;;
9117;SDS011;4594;50.994;7.126;2023-05-29T07:14:48;3.17;;;2.47;;
9117;SDS011;4594;50.994;7.126;2023-05-29T07:17:14;4.90;;;2.30;;
9117;SDS011;4594;50.994;7.126;2023-05-29T07:19:40;4.03;;;2.33;;
9117;SDS011;4594;50.994;7.126;2023-05-29T07:22:06;4.00;;;2.27;;
9117;SDS011;4594;50.994;7.126;2023-05-29T07:24:32;7.67;;;2.97;;
9117;SDS011;4594;50.994;7.126;2023-05-29T07:26:58;5.43;;;2.50;;
9117;SDS011;4594;50.994;7.126;2023-05-29T07:29:24;4.10;;;2.40;;
9117;SDS011;4594;50.994;7.126;2023-05-29T07:31:50;3.53;;;2.23;;
9117;SDS011;4594;50.994;7.126;2023-05-29T07:34:16;7.23;;;2.80;;
9117;SDS011;4594;50.994;7.126;2023-05-29T07:37:01;2.40;;;1.93;;
9117;SDS011;4594;50.994;7.126;2023-05-29T07:39:29;4.47;;;2.10;;
9117;SDS011;4594;50.994;7.126;2023-05-29T07:42:00;5.43;;;2.20;;
9117;SDS011;4594;50.994;7.126;2023-05-29T07:44:27;4.47;;;2.37;;
9117;SDS011;4594;50.994;7.126;2023-05-29T07:46:52;2.20;;;2.00;;
9117;SDS011;4594;50.994;7.126;2023-05-29T07:49:21;4.00;;;2.40;;
9117;SDS011;4594;50.994;7.126;2023-05-29T07:51:47;2.60;;;2.07;;
9117;SDS011;4594;50.994;7.126;2023-05-29T07:54:13;2.80;;;2.17;;
9117;SDS011;4594;50.994;7.126;2023-05-29T07:56:42;3.43;;;2.10;;
9117;SDS011;4594;50.994;7.126;2023-05-29T07:59:08;3.63;;;2.20;;
9117;SDS011;4594;50.994;7.126;2023-05-29T08:01:33;4.43;;;2.50;;
9117;SDS011;4594;50.994;7.126;2023-05-29T08:04:00;5.83;;;2.53;;
9117;SDS011;4594;50.994;7.126;2023-05-29T08:06:26;2.87;;;2.17;;
9117;SDS011;4594;50.994;7.126;2023-05-29T08:08:52;3.60;;;2.13;;
9117;SDS011;4594;50.994;7.126;2023-05-29T08:11:18;3.93;;;2.03;;
9117;SDS011;4594;50.994;7.126;2023-05-29T08:13:44;6.03;;;2.37;;
9117;SDS011;4594;50.994;7.126;2023-05-29T08:16:10;3.33;;;2.17;;
9117;SDS011;4594;50.994;7.126;2023-05-29T08:18:39;4.87;;;2.60;;
9117;SDS011;4594;50.994;7.126;2023-05-29T08:21:05;3.10;;;1.83;;
9117;SDS011;4594;50.994;7.126;2023-05-29T08:23:31;3.77;;;2.17;;
9117;SDS011;4594;50.994;7.126;2023-05-29T08:25:57;3.60;;;2.53;;
9117;SDS011;4594;50.994;7.126;2023-05-29T08:28:23;2.27;;;2.07;;
9117;SDS011;4594;50.994;7.126;2023-05-29T08:30:48;4.37;;;2.40;;
9117;SDS011;4594;50.994;7.126;2023-05-29T08:33:14;4.30;;;2.00;;
9117;SDS011;4594;50.994;7.126;2023-05-29T08:35:40;4.27;;;2.17;;
9117;SDS011;4594;50.994;7.126;2023-05-29T08:38:06;5.50;;;1.90;;
9117;SDS011;4594;50.994;7.126;2023-05-29T08:40:31;4.30;;;2.33;;
9117;SDS011;4594;50.994;7.126;2023-05-29T08:43:20;5.27;;;2.17;;
9117;SDS011;4594;50.994;7.126;2023-05-29T08:45:47;3.40;;;2.07;;
9117;SDS011;4594;50.994;7.126;2023-05-29T08:48:20;3.23;;;1.80;;
9117;SDS011;4594;50.994;7.126;2023-05-29T08:50:53;1.97;;;1.80;;
9117;SDS011;4594;50.994;7.126;2023-05-29T08:53:21;2.50;;;1.93;;
9117;SDS011;4594;50.994;7.126;2023-05-29T08:55:48;3.97;;;2.30;;
9117;SDS011;4594;50.994;7.126;2023-05-29T08:58:17;2.77;;;2.20;;
9117;SDS011;4594;50.994;7.126;2023-05-29T09:00:46;3.77;;;1.80;;
9117;SDS011;4594;50.994;7.126;2023-05-29T09:03:13;6.33;;;2.27;;
9117;SDS011;4594;50.994;7.126;2023-05-29T09:05:40;2.47;;;2.10;;
9117;SDS011;4594;50.994;7.126;2023-05-29T09:08:08;3.07;;;1.70;;
9117;SDS011;4594;50.994;7.126;2023-05-29T09:10:36;4.57;;;2.40;;
9117;SDS011;4594;50.994;7.126;2023-05-29T09:13:05;4.57;;;1.67;;
9117;SDS011;4594;50.994;7.126;2023-05-29T09:15:31;4.90;;;2.03;;
9117;SDS011;4594;50.994;7.126;2023-05-29T09:17:57;2.33;;;1.53;;
9117;SDS011;4594;50.994;7.126;2023-05-29T09:20:23;4.00;;;1.80;;
9117;SDS011;4594;50.994;7.126;2023-05-29T09:25:30;2.83;;;1.90;;
9117;SDS011;4594;50.994;7.126;2023-05-29T09:33:12;3.07;;;2.03;;
9117;SDS011;4594;50.994;7.126;2023-05-29T09:35:43;3.03;;;1.63;;
9117;SDS011;4594;50.994;7.126;2023-05-29T09:38:12;4.70;;;1.87;;
9117;SDS011;4594;50.994;7.126;2023-05-29T09:40:43;5.00;;;1.93;;
9117;SDS011;4594;50.994;7.126;2023-05-29T09:43:16;4.97;;;2.97;;
9117;SDS011;4594;50.994;7.126;2023-05-29T09:45:45;11.07;;;5.43;;
9117;SDS011;4594;50.994;7.126;2023-05-29T09:48:13;5.20;;;3.10;;
9117;SDS011;4594;50.994;7.126;2023-05-29T09:50:44;4.63;;;2.60;;
9117;SDS011;4594;50.994;7.126;2023-05-29T09:53:19;5.07;;;2.50;;
9117;SDS011;4594;50.994;7.126;2023-05-29T09:55:49;3.73;;;2.20;;
9117;SDS011;4594;50.994;7.126;2023-05-29T09:58:20;4.17;;;2.13;;
9117;SDS011;4594;50.994;7.126;2023-05-29T10:00:48;3.73;;;2.23;;
9117;SDS011;4594;50.994;7.126;2023-05-29T10:03:16;4.17;;;2.30;;
9117;SDS011;4594;50.994;7.126;2023-05-29T10:05:44;5.63;;;2.10;;
9117;SDS011;4594;50.994;7.126;2023-05-29T10:08:16;3.87;;;2.27;;
9117;SDS011;4594;50.994;7.126;2023-05-29T10:10:45;5.63;;;2.80;;
9117;SDS011;4594;50.994;7.126;2023-05-29T10:13:18;2.93;;;2.03;;
9117;SDS011;4594;50.994;7.126;2023-05-29T10:15:49;4.40;;;1.97;;
9117;SDS011;4594;50.994;7.126;2023-05-29T10:18:34;4.80;;;2.10;;
9117;SDS011;4594;50.994;7.126;2023-05-29T10:21:03;3.30;;;2.00;;
9117;SDS011;4594;50.994;7.126;2023-05-29T10:23:32;4.00;;;2.43;;
9117;SDS011;4594;50.994;7.126;2023-05-29T10:26:04;4.17;;;2.70;;
9117;SDS011;4594;50.994;7.126;2023-05-29T10:28:37;4.13;;;2.20;;
9117;SDS011;4594;50.994;7.126;2023-05-29T10:31:24;5.37;;;2.63;;
9117;SDS011;4594;50.994;7.126;2023-05-29T10:36:47;5.20;;;2.10;;
9117;SDS011;4594;50.994;7.126;2023-05-29T10:39:31;3.47;;;1.70;;
9117;SDS011;4594;50.994;7.126;2023-05-29T10:41:58;2.00;;;1.77;;
9117;SDS011;4594;50.994;7.126;2023-05-29T10:49:24;3.07;;;2.33;;
9117;SDS011;4594;50.994;7.126;2023-05-29T10:51:50;5.77;;;2.40;;
9117;SDS011;4594;50.994;7.126;2023-05-29T10:54:21;2.73;;;1.90;;
9117;SDS011;4594;50.994;7.126;2023-05-29T10:56:52;4.03;;;1.90;;
9117;SDS011;4594;50.994;7.126;2023-05-29T10:59:22;4.17;;;1.90;;
9117;SDS011;4594;50.994;7.126;2023-05-29T11:01:52;5.93;;;2.57;;
9117;SDS011;4594;50.994;7.126;2023-05-29T11:06:52;3.53;;;1.50;;
9117;SDS011;4594;50.994;7.126;2023-05-29T11:09:34;3.37;;;2.20;;
9117;SDS011;4594;50.994;7.126;2023-05-29T11:12:14;4.27;;;2.00;;
9117;SDS011;4594;50.994;7.126;2023-05-29T11:20:05;4.47;;;2.00;;
9117;SDS011;4594;50.994;7.126;2023-05-29T11:22:48;8.07;;;2.60;;
9117;SDS011;4594;50.994;7.126;2023-05-29T11:25:23;4.07;;;2.27;;
9117;SDS011;4594;50.994;7.126;2023-05-29T11:27:49;5.13;;;2.00;;
9117;SDS011;4594;50.994;7.126;2023-05-29T11:30:17;5.60;;;2.10;;
9117;SDS011;4594;50.994;7.126;2023-05-29T11:32:44;6.50;;;2.03;;
9117;SDS011;4594;50.994;7.126;2023-05-29T11:35:17;5.60;;;2.20;;
9117;SDS011;4594;50.994;7.126;2023-05-29T11:37:47;8.37;;;2.53;;
9117;SDS011;4594;50.994;7.126;2023-05-29T11:40:13;5.07;;;2.60;;
9117;SDS011;4594;50.994;7.126;2023-05-29T11:42:41;5.20;;;2.60;;
9117;SDS011;4594;50.994;7.126;2023-05-29T11:45:22;3.30;;;2.20;;
9117;SDS011;4594;50.994;7.126;2023-05-29T11:47:55;5.90;;;2.10;;
9117;SDS011;4594;50.994;7.126;2023-05-29T11:50:26;5.43;;;2.57;;
9117;SDS011;4594;50.994;7.126;2023-05-29T11:52:55;3.93;;;2.37;;
9117;SDS011;4594;50.994;7.126;2023-05-29T11:55:22;6.60;;;2.43;;
9117;SDS011;4594;50.994;7.126;2023-05-29T11:57:50;3.60;;;2.10;;
9117;SDS011;4594;50.994;7.126;2023-05-29T12:00:22;6.43;;;2.73;;
9117;SDS011;4594;50.994;7.126;2023-05-29T12:02:49;4.77;;;3.03;;
9117;SDS011;4594;50.994;7.126;2023-05-29T12:05:16;5.17;;;2.07;;
9117;SDS011;4594;50.994;7.126;2023-05-29T12:10:21;7.50;;;2.70;;
9117;SDS011;4594;50.994;7.126;2023-05-29T12:12:50;5.47;;;2.73;;
9117;SDS011;4594;50.994;7.126;2023-05-29T12:15:21;2.37;;;2.20;;
9117;SDS011;4594;50.994;7.126;2023-05-29T12:17:51;4.90;;;2.60;;
9117;SDS011;4594;50.994;7.126;2023-05-29T12:20:21;7.40;;;2.50;;
9117;SDS011;4594;50.994;7.126;2023-05-29T12:22:51;5.70;;;2.30;;
9117;SDS011;4594;50.994;7.126;2023-05-29T12:25:19;6.10;;;2.43;;
9117;SDS011;4594;50.994;7.126;2023-05-29T12:27:46;6.03;;;2.10;;
9117;SDS011;4594;50.994;7.126;2023-05-29T12:32:47;5.17;;;2.27;;
9117;SDS011;4594;50.994;7.126;2023-05-29T12:38:04;10.37;;;3.33;;
9117;SDS011;4594;50.994;7.126;2023-05-29T12:40:33;6.57;;;3.03;;
9117;SDS011;4594;50.994;7.126;2023-05-29T12:43:02;7.87;;;2.87;;
9117;SDS011;4594;50.994;7.126;2023-05-29T12:45:31;5.87;;;2.77;;
9117;SDS011;4594;50.994;7.126;2023-05-29T12:47:59;5.50;;;2.47;;
9117;SDS011;4594;50.994;7.126;2023-05-29T12:50:29;7.70;;;2.97;;
9117;SDS011;4594;50.994;7.126;2023-05-29T12:53:08;3.47;;;2.63;;
9117;SDS011;4594;50.994;7.126;2023-05-29T12:55:37;2.90;;;2.43;;
9117;SDS011;4594;50.994;7.126;2023-05-29T13:00:36;5.50;;;2.70;;
9117;SDS011;4594;50.994;7.126;2023-05-29T13:03:04;4.77;;;2.43;;
9117;SDS011;4594;50.994;7.126;2023-05-29T13:05:31;2.83;;;2.23;;
9117;SDS011;4594;50.994;7.126;2023-05-29T13:07:57;6.80;;;2.67;;
9117;SDS011;4594;50.994;7.126;2023-05-29T13:10:24;9.67;;;2.77;;
9117;SDS011;4594;50.994;7.126;2023-05-29T13:12:51;5.80;;;2.47;;
9117;SDS011;4594;50.994;7.126;2023-05-29T13:15:23;5.87;;;2.63;;
9117;SDS011;4594;50.994;7.126;2023-05-29T13:17:50;8.63;;;3.23;;
9117;SDS011;4594;50.994;7.126;2023-05-29T13:20:17;5.00;;;2.20;;
9117;SDS011;4594;50.994;7.126;2023-05-29T13:22:44;6.70;;;3.03;;
9117;SDS011;4594;50.994;7.126;2023-05-29T13:25:13;5.77;;;2.60;;
9117;SDS011;4594;50.994;7.126;2023-05-29T13:27:43;6.03;;;2.63;;
9117;SDS011;4594;50.994;7.126;2023-05-29T13:30:11;4.33;;;2.50;;
9117;SDS011;4594;50.994;7.126;2023-05-29T13:32:38;5.57;;;2.33;;
9117;SDS011;4594;50.994;7.126;2023-05-29T13:35:04;5.33;;;3.10;;
9117;SDS011;4594;50.994;7.126;2023-05-29T13:37:30;4.20;;;2.47;;
9117;SDS011;4594;50.994;7.126;2023-05-29T13:39:56;6.63;;;2.30;;
9117;SDS011;4594;50.994;7.126;2023-05-29T13:42:22;5.00;;;2.80;;
9117;SDS011;4594;50.994;7.126;2023-05-29T13:44:48;11.13;;;2.60;;
9117;SDS011;4594;50.994;7.126;2023-05-29T13:47:15;7.50;;;2.73;;
9117;SDS011;4594;50.994;7.126;2023-05-29T13:49:41;17.03;;;2.80;;
9117;SDS011;4594;50.994;7.126;2023-05-29T13:52:07;4.33;;;2.60;;
9117;SDS011;4594;50.994;7.126;2023-05-29T13:54:33;7.00;;;2.87;;
9117;SDS011;4594;50.994;7.126;2023-05-29T13:57:02;4.00;;;2.83;;
9117;SDS011;4594;50.994;7.126;2023-05-29T13:59:32;7.00;;;2.50;;
9117;SDS011;4594;50.994;7.126;2023-05-29T14:01:59;10.03;;;2.33;;
9117;SDS011;4594;50.994;7.126;2023-05-29T14:04:26;4.80;;;2.47;;
9117;SDS011;4594;50.994;7.126;2023-05-29T14:06:54;4.83;;;2.70;;
9117;SDS011;4594;50.994;7.126;2023-05-29T14:09:21;11.67;;;2.50;;
9117;SDS011;4594;50.994;7.126;2023-05-29T14:11:52;4.00;;;2.20;;
9117;SDS011;4594;50.994;7.126;2023-05-29T14:14:24;5.40;;;2.57;;
9117;SDS011;4594;50.994;7.126;2023-05-29T14:16:51;5.33;;;2.70;;
9117;SDS011;4594;50.994;7.126;2023-05-29T14:19:17;2.17;;;1.97;;
9117;SDS011;4594;50.994;7.126;2023-05-29T14:21:44;9.23;;;2.90;;
9117;SDS011;4594;50.994;7.126;2023-05-29T14:24:10;6.47;;;2.80;;
9117;SDS011;4594;50.994;7.126;2023-05-29T14:26:36;4.50;;;2.70;;
9117;SDS011;4594;50.994;7.126;2023-05-29T14:29:02;7.43;;;2.80;;
9117;SDS011;4594;50.994;7.126;2023-05-29T14:31:28;4.87;;;2.83;;
9117;SDS011;4594;50.994;7.126;2023-05-29T14:33:54;2.93;;;2.63;;
9117;SDS011;4594;50.994;7.126;2023-05-29T14:36:20;4.27;;;2.63;;
9117;SDS011;4594;50.994;7.126;2023-05-29T14:38:45;10.63;;;2.70;;
9117;SDS011;4594;50.994;7.126;2023-05-29T14:41:12;5.60;;;2.90;;
9117;SDS011;4594;50.994;7.126;2023-05-29T14:43:41;5.40;;;2.83;;
9117;SDS011;4594;50.994;7.126;2023-05-29T14:46:08;6.13;;;2.70;;
9117;SDS011;4594;50.994;7.126;2023-05-29T14:48:34;4.83;;;2.73;;
9117;SDS011;4594;50.994;7.126;2023-05-29T14:51:00;6.13;;;3.07;;
9117;SDS011;4594;50.994;7.126;2023-05-29T14:53:26;4.53;;;2.73;;
9117;SDS011;4594;50.994;7.126;2023-05-29T14:55:52;6.40;;;2.63;;
9117;SDS011;4594;50.994;7.126;2023-05-29T14:58:18;2.43;;;2.03;;
9117;SDS011;4594;50.994;7.126;2023-05-29T15:00:44;5.57;;;2.70;;
9117;SDS011;4594;50.994;7.126;2023-05-29T15:03:10;5.93;;;3.00;;
9117;SDS011;4594;50.994;7.126;2023-05-29T15:05:36;10.47;;;4.50;;
9117;SDS011;4594;50.994;7.126;2023-05-29T15:08:01;8.77;;;3.90;;
9117;SDS011;4594;50.994;7.126;2023-05-29T15:10:27;8.53;;;3.53;;
9117;SDS011;4594;50.994;7.126;2023-05-29T15:12:53;4.10;;;2.57;;
9117;SDS011;4594;50.994;7.126;2023-05-29T15:15:25;4.80;;;2.40;;
9117;SDS011;4594;50.994;7.126;2023-05-29T15:17:52;3.80;;;2.33;;
9117;SDS011;4594;50.994;7.126;2023-05-29T15:20:21;7.03;;;2.40;;
9117;SDS011;4594;50.994;7.126;2023-05-29T15:22:48;3.00;;;2.23;;
9117;SDS011;4594;50.994;7.126;2023-05-29T15:25:15;3.93;;;2.30;;
9117;SDS011;4594;50.994;7.126;2023-05-29T15:27:42;5.17;;;2.80;;
9117;SDS011;4594;50.994;7.126;2023-05-29T15:30:09;4.07;;;2.77;;
9117;SDS011;4594;50.994;7.126;2023-05-29T15:32:44;6.23;;;2.80;;
9117;SDS011;4594;50.994;7.126;2023-05-29T15:35:11;3.50;;;2.70;;
9117;SDS011;4594;50.994;7.126;2023-05-29T15:37:40;3.93;;;2.70;;
9117;SDS011;4594;50.994;7.126;2023-05-29T15:40:08;4.63;;;2.60;;
9117;SDS011;4594;50.994;7.126;2023-05-29T15:42:34;3.03;;;2.57;;
9117;SDS011;4594;50.994;7.126;2023-05-29T15:45:04;4.57;;;2.90;;
9117;SDS011;4594;50.994;7.126;2023-05-29T15:47:30;4.07;;;2.60;;
9117;SDS011;4594;50.994;7.126;2023-05-29T15:49:56;6.07;;;2.80;;
9117;SDS011;4594;50.994;7.126;2023-05-29T15:52:23;2.87;;;2.67;;
9117;SDS011;4594;50.994;7.126;2023-05-29T15:54:50;6.40;;;3.00;;